createdAt,value
2018-12-22T00:00:46.579Z,1.27
2018-12-22T00:06:41.525Z,2.04
2018-12-22T00:12:36.525Z,1.3
2018-12-22T00:18:31.565Z,1.53
2018-12-22T00:24:26.529Z,1.26
2018-12-22T00:30:21.538Z,0.94
2018-12-22T00:36:16.594Z,1.25
2018-12-22T00:42:11.541Z,1.23
2018-12-22T00:48:06.549Z,1.33
2018-12-22T00:54:01.573Z,1.93
2018-12-22T00:59:56.561Z,1.32
2018-12-22T01:05:51.561Z,1.15
2018-12-22T01:11:46.596Z,1.33
2018-12-22T01:17:41.601Z,1.49
2018-12-22T01:23:36.658Z,1.24
2018-12-22T01:29:31.584Z,1.23
2018-12-22T01:35:26.615Z,1.2
2018-12-22T01:41:21.612Z,1.07
2018-12-22T01:47:16.619Z,1.17
2018-12-22T01:53:11.595Z,1.17
2018-12-22T01:59:06.624Z,1.19
2018-12-22T02:05:01.608Z,1.27
2018-12-22T02:10:56.647Z,1.13
2018-12-22T02:16:51.622Z,1.24
2018-12-22T02:22:46.656Z,1.13
2018-12-22T02:28:41.634Z,1.27
2018-12-22T02:34:36.612Z,1.89
2018-12-22T02:40:31.615Z,1.45
2018-12-22T02:46:26.635Z,1.84
2018-12-22T02:52:21.612Z,1.77
2018-12-22T02:58:16.634Z,1.5
2018-12-22T03:04:11.637Z,1.16
2018-12-22T03:10:06.624Z,1.37
2018-12-22T03:16:01.624Z,1.61
2018-12-22T03:21:56.628Z,1.91
2018-12-22T03:27:51.665Z,1.89
2018-12-22T03:33:46.642Z,1.72
2018-12-22T03:39:41.673Z,1.6
2018-12-22T03:45:36.675Z,1.3
2018-12-22T03:51:31.650Z,1.5
2018-12-22T03:57:26.655Z,1.54
2018-12-22T04:03:21.668Z,1.62
2018-12-22T04:09:16.671Z,1.84
2018-12-22T04:15:11.659Z,1.79
2018-12-22T04:21:06.666Z,2.05
2018-12-22T04:27:01.666Z,1.56
2018-12-22T04:32:56.683Z,1.37
2018-12-22T04:38:51.663Z,0.94
2018-12-22T04:44:46.660Z,1.15
2018-12-22T04:50:41.680Z,1.26
2018-12-22T04:56:36.708Z,1.42
2018-12-22T05:02:31.682Z,1.87
2018-12-22T05:08:26.709Z,1.04
2018-12-22T05:14:21.681Z,1.08
2018-12-22T05:20:16.714Z,1.19
2018-12-22T05:26:11.706Z,1.04
2018-12-22T05:32:06.684Z,0.94
2018-12-22T05:38:01.704Z,1.12
2018-12-22T05:43:56.705Z,1.15
2018-12-22T05:49:51.697Z,1.02
2018-12-22T05:55:46.730Z,3.79
2018-12-22T06:01:41.765Z,5.09
2018-12-22T06:07:36.708Z,1.51
2018-12-22T06:13:31.715Z,2.28
2018-12-22T06:19:26.735Z,1.41
2018-12-22T06:25:21.788Z,1.61
2018-12-22T06:31:16.781Z,1.2
2018-12-22T06:37:11.753Z,5.64
2018-12-22T06:43:06.740Z,2.09
2018-12-22T06:49:01.752Z,1.67
2018-12-22T06:54:56.740Z,3.18
2018-12-22T07:00:51.765Z,1.79
2018-12-22T07:06:46.751Z,1.88
2018-12-22T07:12:41.806Z,1.5
2018-12-22T07:18:36.753Z,1.54
2018-12-22T07:24:31.773Z,1.6
2018-12-22T07:30:26.749Z,3.2
2018-12-22T07:36:21.762Z,2.22
2018-12-22T07:42:16.798Z,3.4
2018-12-22T07:48:11.810Z,3.91
2018-12-22T07:54:06.777Z,3.82
2018-12-22T08:00:01.787Z,3.23
2018-12-22T08:05:56.771Z,4.67
2018-12-22T08:11:51.763Z,4.64
2018-12-22T08:17:46.817Z,4.7
2018-12-22T08:23:41.808Z,7.01
2018-12-22T08:29:36.819Z,9.72
2018-12-22T08:35:31.835Z,15.68
2018-12-22T08:41:26.849Z,9.03
2018-12-22T08:47:21.787Z,5.76
2018-12-22T08:53:16.805Z,5.68
2018-12-22T08:59:11.833Z,6.63
2018-12-22T09:05:06.810Z,4.91
2018-12-22T09:11:01.811Z,3.14
2018-12-22T09:16:56.822Z,2.64
2018-12-22T09:22:51.865Z,2.7
2018-12-22T09:28:46.831Z,7.37
2018-12-22T09:34:41.826Z,3.78
2018-12-22T09:40:36.853Z,5.17
2018-12-22T09:46:31.822Z,12.44
2018-12-22T09:52:26.858Z,14.6
2018-12-22T09:58:21.849Z,8.94
2018-12-22T10:04:16.844Z,13.43
2018-12-22T10:10:11.822Z,10.15
2018-12-22T10:16:06.862Z,6.48
2018-12-22T10:22:01.854Z,8.02
2018-12-22T10:27:56.872Z,8.74
2018-12-22T10:33:51.867Z,6.69
2018-12-22T10:39:46.840Z,6.97
2018-12-22T10:45:41.868Z,6.24
2018-12-22T10:51:36.861Z,6.24
2018-12-22T10:57:31.879Z,5.56
2018-12-22T11:03:26.857Z,3.91
2018-12-22T11:09:21.868Z,4.95
2018-12-22T11:15:16.900Z,4.18
2018-12-22T11:21:11.858Z,2.87
2018-12-22T11:27:06.880Z,3.54
2018-12-22T11:33:03.305Z,3.99
2018-12-22T11:38:56.899Z,6.45
2018-12-22T11:44:51.893Z,3.73
2018-12-22T11:50:46.888Z,4.46
2018-12-22T11:56:41.896Z,5.56
2018-12-22T12:02:36.887Z,5.72
2018-12-22T12:08:31.907Z,8.51
2018-12-22T12:14:26.931Z,12.49
2018-12-22T12:20:21.920Z,11.38
2018-12-22T12:26:16.937Z,10.34
2018-12-22T12:32:11.914Z,8.17
2018-12-22T12:38:06.921Z,8.43
2018-12-22T12:44:01.951Z,7.63
2018-12-22T12:49:56.988Z,7.17
2018-12-22T12:55:51.939Z,7.27
2018-12-22T13:01:46.938Z,6.76
2018-12-22T13:07:41.910Z,7.09
2018-12-22T13:13:36.937Z,12.79
2018-12-22T13:19:31.946Z,13.22
2018-12-22T13:25:26.929Z,16.24
2018-12-22T13:31:21.945Z,11.33
2018-12-22T13:37:16.934Z,12.54
2018-12-22T13:43:11.945Z,11.57
2018-12-22T13:49:07.165Z,10.22
2018-12-22T13:55:01.949Z,9.01
2018-12-22T14:00:56.960Z,8.02
2018-12-22T14:06:51.968Z,10.72
2018-12-22T14:12:47.004Z,13.2
2018-12-22T14:18:41.966Z,9.19
2018-12-22T14:24:36.982Z,10.94
2018-12-22T14:30:31.972Z,11.23
2018-12-22T14:36:26.967Z,14.4
2018-12-22T14:42:21.998Z,16.67
2018-12-22T14:48:16.986Z,11.92
2018-12-22T14:54:12.046Z,8.33
2018-12-22T15:00:07.025Z,8.19
2018-12-22T15:06:01.982Z,8.24
2018-12-22T15:11:57.002Z,11.38
2018-12-22T15:17:51.997Z,11.88
2018-12-22T15:23:47.000Z,10.48
2018-12-22T15:29:42.002Z,15.68
2018-12-22T15:35:37.004Z,10.22
2018-12-22T15:41:31.997Z,10.05
2018-12-22T15:47:27.035Z,7.16
2018-12-22T15:53:22.012Z,8.25
2018-12-22T15:59:17.006Z,5.77
2018-12-22T16:05:12.034Z,7.95
2018-12-22T16:11:07.109Z,7.67
2018-12-22T16:17:02.028Z,7.88
2018-12-22T16:22:57.040Z,9.33
2018-12-22T16:28:52.041Z,8.26
2018-12-22T16:34:47.033Z,8.7
2018-12-22T16:40:42.031Z,5.97
2018-12-22T16:46:37.051Z,10.64
2018-12-22T16:52:32.034Z,13.78
2018-12-22T16:58:27.056Z,6.54
2018-12-22T17:04:22.039Z,7.22
2018-12-22T17:10:17.062Z,9.99
2018-12-22T17:16:12.062Z,8.97
2018-12-22T17:22:07.074Z,9.59
2018-12-22T17:28:02.068Z,5.07
2018-12-22T17:33:57.101Z,5.97
2018-12-22T17:39:53.581Z,10.96
2018-12-22T17:45:47.070Z,10.97
2018-12-22T17:51:42.118Z,9.76
2018-12-22T17:57:37.098Z,6.29
2018-12-22T18:03:32.095Z,11.97
2018-12-22T18:09:27.116Z,20.56
2018-12-22T18:15:22.096Z,24.72
2018-12-22T18:21:17.103Z,26.87
2018-12-22T18:27:12.106Z,27.57
2018-12-22T18:33:07.104Z,27.56
2018-12-22T18:39:02.132Z,33.97
2018-12-22T18:44:57.094Z,39.47
2018-12-22T18:50:52.094Z,42.17
2018-12-22T18:56:47.110Z,48.77
2018-12-22T19:02:42.123Z,52.71
2018-12-22T19:08:37.117Z,50.27
2018-12-22T19:14:32.152Z,51.63
2018-12-22T19:20:27.115Z,51.85
2018-12-22T19:26:22.121Z,39.79
2018-12-22T19:32:17.124Z,35.97
2018-12-22T19:38:12.134Z,29.57
2018-12-22T19:44:07.149Z,29.23
2018-12-22T19:50:02.148Z,29.87
2018-12-22T19:55:57.147Z,32.13
2018-12-22T20:01:52.244Z,28.02
2018-12-22T20:07:47.217Z,29.16
2018-12-22T20:13:42.173Z,32.94
2018-12-22T20:19:37.166Z,33.28
2018-12-22T20:25:32.150Z,35.22
2018-12-22T20:31:27.151Z,37.31
2018-12-22T20:37:22.156Z,33.06
2018-12-22T20:43:17.162Z,32.58
2018-12-22T20:49:12.167Z,33.03
2018-12-22T20:55:07.215Z,35.5
2018-12-22T21:01:02.188Z,36.92
2018-12-22T21:06:57.223Z,38.42
2018-12-22T21:12:52.208Z,38.9
2018-12-22T21:18:47.228Z,36.22
2018-12-22T21:24:42.304Z,31.95
2018-12-22T21:30:37.216Z,27.76
2018-12-22T21:36:32.204Z,29.99
2018-12-22T21:42:27.205Z,36.08
2018-12-22T21:48:22.182Z,35.43
2018-12-22T21:54:17.239Z,34.43
2018-12-22T22:00:12.233Z,35.55
2018-12-22T22:06:07.213Z,36.64
2018-12-22T22:12:02.213Z,35.85
2018-12-22T22:17:57.246Z,39.13
2018-12-22T22:23:52.224Z,36.07
2018-12-22T22:29:47.230Z,36.46
2018-12-22T22:35:42.230Z,37.6
2018-12-22T22:41:37.261Z,37.3
2018-12-22T22:47:32.231Z,41
2018-12-22T22:53:27.291Z,39.31
2018-12-22T22:59:22.233Z,36.56
2018-12-22T23:05:17.251Z,35.87
2018-12-22T23:11:12.265Z,34.91
2018-12-22T23:17:07.238Z,33.92
2018-12-22T23:23:02.248Z,33.57
2018-12-22T23:28:57.259Z,29.78
2018-12-22T23:34:52.245Z,31.3
2018-12-22T23:40:47.263Z,33.33
2018-12-22T23:46:42.274Z,27.14
2018-12-22T23:52:37.313Z,28.68
2018-12-22T23:58:32.267Z,27.85
